Ternholm — OWIM2 — position and weather

sailwx.info

Track history (hours):
 
Tides and Currents Weather Stations Pressure Air Temp Water Temp Dewpoint Dewpoint Depression Visibility Wind Speed Wind Dir Waves Ship Positions

Ternholm

Last reported at 2018-Feb-17 10:29 UTC. Time now 2018-Feb-19 14:17 UTC.
Position N 60°26' E 019°03'.

Length 141 m; draft 8.5 m.

Type: Tanker. MMSI: 219076000.

Date/timePositionNaut miles runAvg speedWind from/ knotsBaromVisibWave heightAir tempDewpointWater temp
2018-Feb-17 10:29N 60°26' E 019°03'711.7
2018-Feb-17 09:53N 60°19' E 019°01'411.6
2018-Feb-17 09:30N 60°15' E 019°03'611.4
2018-Feb-17 09:00N 60°09' E 019°08'611.6
2018-Feb-17 08:30N 60°05' E 019°16'611.7
2018-Feb-17 08:00N 60°01' E 019°24'911.7
2018-Feb-17 07:14N 59°54' E 019°35'311.7
2018-Feb-17 07:00N 59°52' E 019°38'811.6
2018-Feb-17 06:20N 59°46' E 019°48'411.7
2018-Feb-17 05:59N 59°43' E 019°54'23611.1
2018-Feb-16 08:47N 56°07' E 016°55'611.7
2018-Feb-16 08:15N 56°03' E 016°46'311.7
2018-Feb-16 08:00N 56°01' E 016°41'611.7
2018-Feb-16 07:30N 55°58' E 016°32'611.7
2018-Feb-16 07:00N 55°56' E 016°23'611.6
2018-Feb-16 06:30N 55°53' E 016°14'611.6
2018-Feb-16 06:00N 55°50' E 016°05'611.7
2018-Feb-16 05:30N 55°47' E 015°56'611.7
2018-Feb-16 05:00N 55°45' E 015°47'611.7
2018-Feb-16 04:30N 55°42' E 015°38'611.7
2018-Feb-16 04:00N 55°39' E 015°29'611.7
2018-Feb-16 03:30N 55°36' E 015°20'611.7
2018-Feb-16 03:00N 55°33' E 015°11'611.7
2018-Feb-16 02:30N 55°30' E 015°02'611.7
2018-Feb-16 02:00N 55°27' E 014°53'611.7
2018-Feb-16 01:30N 55°24' E 014°44'611.4
2018-Feb-16 01:00N 55°21' E 014°36'611.7
2018-Feb-16 00:30N 55°16' E 014°30'611.7
2018-Feb-16 00:00N 55°12' E 014°23'611.6
2018-Feb-15 23:30N 55°07' E 014°17'611.6
2018-Feb-15 22:59N 55°03' E 014°10'5311.1
2018-Feb-15 18:14N 54°45' E 012°44'310.9
2018-Feb-15 18:00N 54°44' E 012°40'611.1
2018-Feb-15 17:30N 54°41' E 012°32'1310.7
2018-Feb-15 16:15N 54°31' E 012°16'311.1
2018-Feb-15 16:00N 54°28' E 012°15'510.3
2018-Feb-15 15:30N 54°24' E 012°09'510.1
2018-Feb-15 15:00N 54°25' E 012°00'11 9.9
2018-Feb-15 13:56N 54°26' E 011°42'410.0
2018-Feb-15 13:30N 54°28' E 011°36'5 9.5
2018-Feb-15 13:00N 54°30' E 011°28'5 9.1
2018-Feb-15 12:30N 54°32' E 011°21'4 8.5
2018-Feb-15 12:00N 54°34' E 011°15'4 8.4
2018-Feb-15 11:30N 54°36' E 011°08'5 9.2
2018-Feb-15 11:00N 54°38' E 011°01'4 8.8
2018-Feb-15 10:30N 54°41' E 010°55'4 7.8
2018-Feb-15 10:00N 54°44' E 010°51'4 8.3
2018-Feb-15 09:30N 54°48' E 010°51'4 7.5
2018-Feb-15 09:00N 54°52' E 010°52'4 7.8
2018-Feb-15 08:30N 54°55' E 010°54'4 8.8
2018-Feb-15 08:00N 54°59' E 010°59'4 8.4
2018-Feb-15 07:30N 55°03' E 011°02'5 8.8
2018-Feb-15 06:59N 55°07' E 011°02'4 8.6
2018-Feb-15 06:30N 55°11' E 011°04'4 8.4
2018-Feb-15 06:00N 55°15' E 011°05'5 8.6
2018-Feb-15 05:27N 55°20' E 011°02'4 7.9
2018-Feb-15 05:00N 55°23' E 011°00'80 8.9
2018-Feb-14 19:57N 56°39' E 011°45'710.1
2018-Feb-14 19:18N 56°45' E 011°51'410.4
2018-Feb-14 18:52N 56°50' E 011°48'610.3
2018-Feb-14 18:15N 56°56' E 011°45'1011.0
2018-Feb-14 17:22N 57°05' E 011°39'411.2
2018-Feb-14 17:00N 57°09' E 011°36'510.6
2018-Feb-14 16:30N 57°14' E 011°33'510.1
2018-Feb-14 16:00N 57°18' E 011°30'510.1
2018-Feb-14 15:30N 57°23' E 011°29'510.9
2018-Feb-14 15:00N 57°28' E 011°32'510.9
2018-Feb-14 14:30N 57°33' E 011°36'510.0
2018-Feb-14 14:00N 57°38' E 011°41'510.7
2018-Feb-14 13:30N 57°41' E 011°49'2 3.9
2018-Feb-14 13:00N 57°41' E 011°53'0 0.0
2018-Feb-14 12:29N 57°41' E 011°53'0 0.0
2018-Feb-14 11:59N 57°41' E 011°53'0 0.0
2018-Feb-14 11:29N 57°41' E 011°53'0 0.0
2018-Feb-14 10:59N 57°41' E 011°53'0 0.0
2018-Feb-14 10:29N 57°41' E 011°53'0 0.0
2018-Feb-14 09:59N 57°41' E 011°53'0 0.0
2018-Feb-14 09:29N 57°41' E 011°53'0 0.0
2018-Feb-14 08:59N 57°41' E 011°53'0 0.0
2018-Feb-14 08:29N 57°41' E 011°53'0 0.0
2018-Feb-14 07:59N 57°41' E 011°53'0 0.0
2018-Feb-14 07:29N 57°41' E 011°53'0 0.0
2018-Feb-14 06:59N 57°41' E 011°53'0 0.0
2018-Feb-14 06:29N 57°41' E 011°53'0 0.0
2018-Feb-14 05:59N 57°41' E 011°53'0 0.0
2018-Feb-14 05:29N 57°41' E 011°53'0 0.0
2018-Feb-14 04:59N 57°41' E 011°53'0 0.0
2018-Feb-14 04:29N 57°41' E 011°53'0 0.0
2018-Feb-14 03:59N 57°41' E 011°53'0 0.0
2018-Feb-14 03:29N 57°41' E 011°53'0 0.0
2018-Feb-14 02:59N 57°41' E 011°53'0 0.0
2018-Feb-14 02:29N 57°41' E 011°53'0 0.0
2018-Feb-14 02:00N 57°41' E 011°53'1 2.0
2018-Feb-14 01:30N 57°41' E 011°51'2 4.1
2018-Feb-14 00:58N 57°40' E 011°47'0 0.1
2018-Feb-14 00:28N 57°40' E 011°47'0 0.0
2018-Feb-13 23:58N 57°40' E 011°47'0 0.1
2018-Feb-13 23:28N 57°40' E 011°47'0 0.0
2018-Feb-13 22:58N 57°40' E 011°47'0 0.0
2018-Feb-13 22:25N 57°40' E 011°47'0 0.1
2018-Feb-13 21:58N 57°40' E 011°47'0 0.0
2018-Feb-13 21:28N 57°40' E 011°47'0 0.0
2018-Feb-13 20:55N 57°40' E 011°47'0 0.0
2018-Feb-13 20:28N 57°40' E 011°47'0 0.0
2018-Feb-13 19:58N 57°40' E 011°47'0 0.0
2018-Feb-13 19:28N 57°40' E 011°47'0 0.1
2018-Feb-13 18:56N 57°40' E 011°47'0 1.1
2018-Feb-13 18:31N 57°41' E 011°48'3 5.0
2018-Feb-13 18:00N 57°41' E 011°52'0 0.0
2018-Feb-13 17:30N 57°41' E 011°52'0 0.0
2018-Feb-13 17:00N 57°41' E 011°52'0 0.0
2018-Feb-13 16:30N 57°41' E 011°52'0 0.0
2018-Feb-13 16:00N 57°41' E 011°52'0 0.0
2018-Feb-13 15:30N 57°41' E 011°52'0 0.0
2018-Feb-13 15:00N 57°41' E 011°52'0 0.0
2018-Feb-13 14:30N 57°41' E 011°52'0 0.0
2018-Feb-13 14:00N 57°41' E 011°52'0 0.0
2018-Feb-13 13:30N 57°41' E 011°52'0 0.0
2018-Feb-13 13:00N 57°41' E 011°52'0 0.0
2018-Feb-13 12:30N 57°41' E 011°52'0 0.0
2018-Feb-13 12:00N 57°41' E 011°52'0 0.0
2018-Feb-13 11:30N 57°41' E 011°52'0 0.0
2018-Feb-13 11:00N 57°41' E 011°52'0 0.0
2018-Feb-13 10:30N 57°41' E 011°52'0 0.0
2018-Feb-13 10:00N 57°41' E 011°52'0 0.0
2018-Feb-13 09:30N 57°41' E 011°52'0 0.0
2018-Feb-13 09:00N 57°41' E 011°52'0 0.0
2018-Feb-13 08:30N 57°41' E 011°52'0 0.0
2018-Feb-13 08:00N 57°41' E 011°52'0 0.0
2018-Feb-13 07:30N 57°41' E 011°52'0 0.0
2018-Feb-13 07:00N 57°41' E 011°52'0 0.0
2018-Feb-13 06:30N 57°41' E 011°52'0 0.0
2018-Feb-13 06:00N 57°41' E 011°52'0 0.0
2018-Feb-13 05:30N 57°41' E 011°52'0 0.0
2018-Feb-13 05:00N 57°41' E 011°52'0 0.0
2018-Feb-13 04:30N 57°41' E 011°52'0 0.0
2018-Feb-13 04:00N 57°41' E 011°52'0 0.0
2018-Feb-13 03:29N 57°41' E 011°52'0 0.0
2018-Feb-13 03:00N 57°41' E 011°52'0 0.0
2018-Feb-13 02:31N 57°41' E 011°52'0 0.0
2018-Feb-13 02:00N 57°41' E 011°52'0 0.0
2018-Feb-13 01:30N 57°41' E 011°52'0 0.0
2018-Feb-13 01:00N 57°41' E 011°52'0 0.0
2018-Feb-13 00:30N 57°41' E 011°52'1 2.1
2018-Feb-13 00:01N 57°41' E 011°51'510.4
2018-Feb-12 23:30N 57°38' E 011°42'713.3
2018-Feb-12 23:00N 57°33' E 011°37'612.0
2018-Feb-12 22:31N 57°27' E 011°40'611.7
2018-Feb-12 22:00N 57°21' E 011°43'611.0
2018-Feb-12 21:30N 57°17' E 011°49'4 8.2
2018-Feb-12 21:00N 57°14' E 011°54'4 7.8
2018-Feb-12 20:30N 57°10' E 011°57'4 8.0
2018-Feb-12 20:00N 57°06' E 011°60'36 9.3
2018-Feb-12 16:08N 56°32' E 012°18'211.2
2018-Feb-12 16:00N 56°30' E 012°18'811.0
2018-Feb-12 15:18N 56°23' E 012°21'311.2
2018-Feb-12 15:00N 56°20' E 012°22'510.7
2018-Feb-12 14:30N 56°15' E 012°26'611.3
2018-Feb-12 14:00N 56°10' E 012°30'611.1
2018-Feb-12 13:30N 56°05' E 012°36'510.8
2018-Feb-12 13:00N 56°01' E 012°41'611.6
2018-Feb-12 12:30N 55°55' E 012°44'611.4
2018-Feb-12 12:00N 55°50' E 012°46'611.6
2018-Feb-12 11:30N 55°44' E 012°51'611.7
2018-Feb-12 11:00N 55°39' E 012°57'510.0
2018-Feb-12 10:30N 55°36' E 012°51'5 9.9
2018-Feb-12 10:00N 55°32' E 012°46'510.3
2018-Feb-12 09:30N 55°27' E 012°42'611.7
2018-Feb-12 09:00N 55°21' E 012°40'4 8.5
2018-Feb-12 08:30N 55°18' E 012°44'5 9.9
2018-Feb-12 08:00N 55°16' E 012°52'5 9.3
2018-Feb-12 07:30N 55°16' E 012°60'5 9.4
2018-Feb-12 07:00N 55°16' E 013°08'5 9.3
2018-Feb-12 06:30N 55°16' E 013°17'5 9.7
2018-Feb-12 06:00N 55°15' E 013°25'1110.0
2018-Feb-12 04:52N 55°14' E 013°45'710.5
2018-Feb-12 04:09N 55°14' E 013°58'410.6
2018-Feb-12 03:49N 55°14' E 014°04'511.1
2018-Feb-12 03:21N 55°14' E 014°13'6 9.9
2018-Feb-12 02:43N 55°18' E 014°22'310.8
2018-Feb-12 02:28N 55°20' E 014°25'1010.9
2018-Feb-12 01:31N 55°28' E 014°37'010.7
2018-Feb-12 01:30N 55°28' E 014°37'611.1
2018-Feb-12 01:00N 55°30' E 014°45'611.1
2018-Feb-12 00:30N 55°33' E 014°54'611.0
2018-Feb-12 00:00N 55°36' E 015°02'510.9
2018-Feb-11 23:30N 55°39' E 015°11'510.8
2018-Feb-11 23:00N 55°41' E 015°19'510.8
2018-Feb-11 22:30N 55°44' E 015°27'510.8
2018-Feb-11 22:00N 55°47' E 015°35'510.7
2018-Feb-11 21:30N 55°50' E 015°43'510.6
2018-Feb-11 21:00N 55°53' E 015°51'510.4
2018-Feb-11 20:30N 55°55' E 015°59'510.3
2018-Feb-11 20:00N 55°57' E 016°08'510.4
2018-Feb-11 19:30N 55°59' E 016°16'510.4
2018-Feb-11 19:00N 56°02' E 016°24'510.7
2018-Feb-11 18:31N 56°05' E 016°32'611.2
2018-Feb-11 18:00N 56°08' E 016°41'510.4
2018-Feb-11 17:30N 56°12' E 016°45'510.9
2018-Feb-11 17:00N 56°17' E 016°49'510.9
2018-Feb-11 16:30N 56°22' E 016°52'22211.1
2018-Feb-10 20:35N 59°45' E 019°43'111.4
2018-Feb-10 20:30N 59°46' E 019°42'611.6
2018-Feb-10 20:00N 59°50' E 019°34'611.8
2018-Feb-10 19:28N 59°55' E 019°26'511.6
2018-Feb-10 19:00N 59°59' E 019°19'611.6
2018-Feb-10 18:31N 60°04' E 019°12'611.6
2018-Feb-10 18:00N 60°08' E 019°04'510.7
2018-Feb-10 17:30N 60°13' E 018°60'611.3
2018-Feb-10 16:59N 60°19' E 019°00'511.1
2018-Feb-10 16:30N 60°24' E 018°59'  
2018-Feb-08 06:30N 55°54' E 016°18'611.7
2018-Feb-08 06:00N 55°51' E 016°09'1811.7
2018-Feb-08 04:30N 55°43' E 015°42'3511.7
2018-Feb-08 01:30N 55°26' E 014°47'611.7
2018-Feb-08 01:00N 55°23' E 014°39'611.7
2018-Feb-08 00:30N 55°18' E 014°32'611.7
2018-Feb-07 23:59N 55°14' E 014°25'611.7
2018-Feb-07 23:30N 55°09' E 014°19'611.7
2018-Feb-07 23:00N 55°05' E 014°13'611.4
2018-Feb-07 22:28N 55°00' E 014°05'  
Track history (hours):
 
Tides and Currents Weather Stations Pressure Air Temp Water Temp Dewpoint Dewpoint Depression Visibility Wind Speed Wind Dir Waves Ship Positions

Ternholm

Last reported at 2018-Feb-17 10:29 UTC. Time now 2018-Feb-19 14:17 UTC.
Position N 60°26' E 019°03'.

Length 141 m; draft 8.5 m.

Type: Tanker. MMSI: 219076000.

Date/timePositionNaut miles runAvg speedWind from/ knotsBaromVisibWave heightAir tempDewpointWater temp
2018-Feb-17 10:29N 60°26' E 019°03'711.7
2018-Feb-17 09:53N 60°19' E 019°01'411.6
2018-Feb-17 09:30N 60°15' E 019°03'611.4
2018-Feb-17 09:00N 60°09' E 019°08'611.6
2018-Feb-17 08:30N 60°05' E 019°16'611.7
2018-Feb-17 08:00N 60°01' E 019°24'911.7
2018-Feb-17 07:14N 59°54' E 019°35'311.7
2018-Feb-17 07:00N 59°52' E 019°38'811.6
2018-Feb-17 06:20N 59°46' E 019°48'411.7
2018-Feb-17 05:59N 59°43' E 019°54'23611.1
2018-Feb-16 08:47N 56°07' E 016°55'611.7
2018-Feb-16 08:15N 56°03' E 016°46'311.7
2018-Feb-16 08:00N 56°01' E 016°41'611.7
2018-Feb-16 07:30N 55°58' E 016°32'611.7
2018-Feb-16 07:00N 55°56' E 016°23'611.6
2018-Feb-16 06:30N 55°53' E 016°14'611.6
2018-Feb-16 06:00N 55°50' E 016°05'611.7
2018-Feb-16 05:30N 55°47' E 015°56'611.7
2018-Feb-16 05:00N 55°45' E 015°47'611.7
2018-Feb-16 04:30N 55°42' E 015°38'611.7
2018-Feb-16 04:00N 55°39' E 015°29'611.7
2018-Feb-16 03:30N 55°36' E 015°20'611.7
2018-Feb-16 03:00N 55°33' E 015°11'611.7
2018-Feb-16 02:30N 55°30' E 015°02'611.7
2018-Feb-16 02:00N 55°27' E 014°53'611.7
2018-Feb-16 01:30N 55°24' E 014°44'611.4
2018-Feb-16 01:00N 55°21' E 014°36'611.7
2018-Feb-16 00:30N 55°16' E 014°30'611.7
2018-Feb-16 00:00N 55°12' E 014°23'611.6
2018-Feb-15 23:30N 55°07' E 014°17'611.6
2018-Feb-15 22:59N 55°03' E 014°10'5311.1
2018-Feb-15 18:14N 54°45' E 012°44'310.9
2018-Feb-15 18:00N 54°44' E 012°40'611.1
2018-Feb-15 17:30N 54°41' E 012°32'1310.7
2018-Feb-15 16:15N 54°31' E 012°16'311.1
2018-Feb-15 16:00N 54°28' E 012°15'510.3
2018-Feb-15 15:30N 54°24' E 012°09'510.1
2018-Feb-15 15:00N 54°25' E 012°00'11 9.9
2018-Feb-15 13:56N 54°26' E 011°42'410.0
2018-Feb-15 13:30N 54°28' E 011°36'5 9.5
2018-Feb-15 13:00N 54°30' E 011°28'5 9.1
2018-Feb-15 12:30N 54°32' E 011°21'4 8.5
2018-Feb-15 12:00N 54°34' E 011°15'4 8.4
2018-Feb-15 11:30N 54°36' E 011°08'5 9.2
2018-Feb-15 11:00N 54°38' E 011°01'4 8.8
2018-Feb-15 10:30N 54°41' E 010°55'4 7.8
2018-Feb-15 10:00N 54°44' E 010°51'4 8.3
2018-Feb-15 09:30N 54°48' E 010°51'4 7.5
2018-Feb-15 09:00N 54°52' E 010°52'4 7.8
2018-Feb-15 08:30N 54°55' E 010°54'4 8.8
2018-Feb-15 08:00N 54°59' E 010°59'4 8.4
2018-Feb-15 07:30N 55°03' E 011°02'5 8.8
2018-Feb-15 06:59N 55°07' E 011°02'4 8.6
2018-Feb-15 06:30N 55°11' E 011°04'4 8.4
2018-Feb-15 06:00N 55°15' E 011°05'5 8.6
2018-Feb-15 05:27N 55°20' E 011°02'4 7.9
2018-Feb-15 05:00N 55°23' E 011°00'80 8.9
2018-Feb-14 19:57N 56°39' E 011°45'710.1
2018-Feb-14 19:18N 56°45' E 011°51'410.4
2018-Feb-14 18:52N 56°50' E 011°48'610.3
2018-Feb-14 18:15N 56°56' E 011°45'1011.0
2018-Feb-14 17:22N 57°05' E 011°39'411.2
2018-Feb-14 17:00N 57°09' E 011°36'510.6
2018-Feb-14 16:30N 57°14' E 011°33'510.1
2018-Feb-14 16:00N 57°18' E 011°30'510.1
2018-Feb-14 15:30N 57°23' E 011°29'510.9
2018-Feb-14 15:00N 57°28' E 011°32'510.9
2018-Feb-14 14:30N 57°33' E 011°36'510.0
2018-Feb-14 14:00N 57°38' E 011°41'510.7
2018-Feb-14 13:30N 57°41' E 011°49'2 3.9
2018-Feb-14 13:00N 57°41' E 011°53'0 0.0
2018-Feb-14 12:29N 57°41' E 011°53'0 0.0
2018-Feb-14 11:59N 57°41' E 011°53'0 0.0
2018-Feb-14 11:29N 57°41' E 011°53'0 0.0
2018-Feb-14 10:59N 57°41' E 011°53'0 0.0
2018-Feb-14 10:29N 57°41' E 011°53'0 0.0
2018-Feb-14 09:59N 57°41' E 011°53'0 0.0
2018-Feb-14 09:29N 57°41' E 011°53'0 0.0
2018-Feb-14 08:59N 57°41' E 011°53'0 0.0
2018-Feb-14 08:29N 57°41' E 011°53'0 0.0
2018-Feb-14 07:59N 57°41' E 011°53'0 0.0
2018-Feb-14 07:29N 57°41' E 011°53'0 0.0
2018-Feb-14 06:59N 57°41' E 011°53'0 0.0
2018-Feb-14 06:29N 57°41' E 011°53'0 0.0
2018-Feb-14 05:59N 57°41' E 011°53'0 0.0
2018-Feb-14 05:29N 57°41' E 011°53'0 0.0
2018-Feb-14 04:59N 57°41' E 011°53'0 0.0
2018-Feb-14 04:29N 57°41' E 011°53'0 0.0
2018-Feb-14 03:59N 57°41' E 011°53'0 0.0
2018-Feb-14 03:29N 57°41' E 011°53'0 0.0
2018-Feb-14 02:59N 57°41' E 011°53'0 0.0
2018-Feb-14 02:29N 57°41' E 011°53'0 0.0
2018-Feb-14 02:00N 57°41' E 011°53'1 2.0
2018-Feb-14 01:30N 57°41' E 011°51'2 4.1
2018-Feb-14 00:58N 57°40' E 011°47'0 0.1
2018-Feb-14 00:28N 57°40' E 011°47'0 0.0
2018-Feb-13 23:58N 57°40' E 011°47'0 0.1
2018-Feb-13 23:28N 57°40' E 011°47'0 0.0
2018-Feb-13 22:58N 57°40' E 011°47'0 0.0
2018-Feb-13 22:25N 57°40' E 011°47'0 0.1
2018-Feb-13 21:58N 57°40' E 011°47'0 0.0
2018-Feb-13 21:28N 57°40' E 011°47'0 0.0
2018-Feb-13 20:55N 57°40' E 011°47'0 0.0
2018-Feb-13 20:28N 57°40' E 011°47'0 0.0
2018-Feb-13 19:58N 57°40' E 011°47'0 0.0
2018-Feb-13 19:28N 57°40' E 011°47'0 0.1
2018-Feb-13 18:56N 57°40' E 011°47'0 1.1
2018-Feb-13 18:31N 57°41' E 011°48'3 5.0
2018-Feb-13 18:00N 57°41' E 011°52'0 0.0
2018-Feb-13 17:30N 57°41' E 011°52'0 0.0
2018-Feb-13 17:00N 57°41' E 011°52'0 0.0
2018-Feb-13 16:30N 57°41' E 011°52'0 0.0
2018-Feb-13 16:00N 57°41' E 011°52'0 0.0
2018-Feb-13 15:30N 57°41' E 011°52'0 0.0
2018-Feb-13 15:00N 57°41' E 011°52'0 0.0
2018-Feb-13 14:30N 57°41' E 011°52'0 0.0
2018-Feb-13 14:00N 57°41' E 011°52'0 0.0
2018-Feb-13 13:30N 57°41' E 011°52'0 0.0
2018-Feb-13 13:00N 57°41' E 011°52'0 0.0
2018-Feb-13 12:30N 57°41' E 011°52'0 0.0
2018-Feb-13 12:00N 57°41' E 011°52'0 0.0
2018-Feb-13 11:30N 57°41' E 011°52'0 0.0
2018-Feb-13 11:00N 57°41' E 011°52'0 0.0
2018-Feb-13 10:30N 57°41' E 011°52'0 0.0
2018-Feb-13 10:00N 57°41' E 011°52'0 0.0
2018-Feb-13 09:30N 57°41' E 011°52'0 0.0
2018-Feb-13 09:00N 57°41' E 011°52'0 0.0
2018-Feb-13 08:30N 57°41' E 011°52'0 0.0
2018-Feb-13 08:00N 57°41' E 011°52'0 0.0
2018-Feb-13 07:30N 57°41' E 011°52'0 0.0
2018-Feb-13 07:00N 57°41' E 011°52'0 0.0
2018-Feb-13 06:30N 57°41' E 011°52'0 0.0
2018-Feb-13 06:00N 57°41' E 011°52'0 0.0
2018-Feb-13 05:30N 57°41' E 011°52'0 0.0
2018-Feb-13 05:00N 57°41' E 011°52'0 0.0
2018-Feb-13 04:30N 57°41' E 011°52'0 0.0
2018-Feb-13 04:00N 57°41' E 011°52'0 0.0
2018-Feb-13 03:29N 57°41' E 011°52'0 0.0
2018-Feb-13 03:00N 57°41' E 011°52'0 0.0
2018-Feb-13 02:31N 57°41' E 011°52'0 0.0
2018-Feb-13 02:00N 57°41' E 011°52'0 0.0
2018-Feb-13 01:30N 57°41' E 011°52'0 0.0
2018-Feb-13 01:00N 57°41' E 011°52'0 0.0
2018-Feb-13 00:30N 57°41' E 011°52'1 2.1
2018-Feb-13 00:01N 57°41' E 011°51'510.4
2018-Feb-12 23:30N 57°38' E 011°42'713.3
2018-Feb-12 23:00N 57°33' E 011°37'612.0
2018-Feb-12 22:31N 57°27' E 011°40'611.7
2018-Feb-12 22:00N 57°21' E 011°43'611.0
2018-Feb-12 21:30N 57°17' E 011°49'4 8.2
2018-Feb-12 21:00N 57°14' E 011°54'4 7.8
2018-Feb-12 20:30N 57°10' E 011°57'4 8.0
2018-Feb-12 20:00N 57°06' E 011°60'36 9.3
2018-Feb-12 16:08N 56°32' E 012°18'211.2
2018-Feb-12 16:00N 56°30' E 012°18'811.0
2018-Feb-12 15:18N 56°23' E 012°21'311.2
2018-Feb-12 15:00N 56°20' E 012°22'510.7
2018-Feb-12 14:30N 56°15' E 012°26'611.3
2018-Feb-12 14:00N 56°10' E 012°30'611.1
2018-Feb-12 13:30N 56°05' E 012°36'510.8
2018-Feb-12 13:00N 56°01' E 012°41'611.6
2018-Feb-12 12:30N 55°55' E 012°44'611.4
2018-Feb-12 12:00N 55°50' E 012°46'611.6
2018-Feb-12 11:30N 55°44' E 012°51'611.7
2018-Feb-12 11:00N 55°39' E 012°57'510.0
2018-Feb-12 10:30N 55°36' E 012°51'5 9.9
2018-Feb-12 10:00N 55°32' E 012°46'510.3
2018-Feb-12 09:30N 55°27' E 012°42'611.7
2018-Feb-12 09:00N 55°21' E 012°40'4 8.5
2018-Feb-12 08:30N 55°18' E 012°44'5 9.9
2018-Feb-12 08:00N 55°16' E 012°52'5 9.3
2018-Feb-12 07:30N 55°16' E 012°60'5 9.4
2018-Feb-12 07:00N 55°16' E 013°08'5 9.3
2018-Feb-12 06:30N 55°16' E 013°17'5 9.7
2018-Feb-12 06:00N 55°15' E 013°25'1110.0
2018-Feb-12 04:52N 55°14' E 013°45'710.5
2018-Feb-12 04:09N 55°14' E 013°58'410.6
2018-Feb-12 03:49N 55°14' E 014°04'511.1
2018-Feb-12 03:21N 55°14' E 014°13'6 9.9
2018-Feb-12 02:43N 55°18' E 014°22'310.8
2018-Feb-12 02:28N 55°20' E 014°25'1010.9
2018-Feb-12 01:31N 55°28' E 014°37'010.7
2018-Feb-12 01:30N 55°28' E 014°37'611.1
2018-Feb-12 01:00N 55°30' E 014°45'611.1
2018-Feb-12 00:30N 55°33' E 014°54'611.0
2018-Feb-12 00:00N 55°36' E 015°02'510.9
2018-Feb-11 23:30N 55°39' E 015°11'510.8
2018-Feb-11 23:00N 55°41' E 015°19'510.8
2018-Feb-11 22:30N 55°44' E 015°27'510.8
2018-Feb-11 22:00N 55°47' E 015°35'510.7
2018-Feb-11 21:30N 55°50' E 015°43'510.6
2018-Feb-11 21:00N 55°53' E 015°51'510.4
2018-Feb-11 20:30N 55°55' E 015°59'510.3
2018-Feb-11 20:00N 55°57' E 016°08'510.4
2018-Feb-11 19:30N 55°59' E 016°16'510.4
2018-Feb-11 19:00N 56°02' E 016°24'510.7
2018-Feb-11 18:31N 56°05' E 016°32'611.2
2018-Feb-11 18:00N 56°08' E 016°41'510.4
2018-Feb-11 17:30N 56°12' E 016°45'510.9
2018-Feb-11 17:00N 56°17' E 016°49'510.9
2018-Feb-11 16:30N 56°22' E 016°52'22211.1
2018-Feb-10 20:35N 59°45' E 019°43'111.4
2018-Feb-10 20:30N 59°46' E 019°42'611.6
2018-Feb-10 20:00N 59°50' E 019°34'611.8
2018-Feb-10 19:28N 59°55' E 019°26'511.6
2018-Feb-10 19:00N 59°59' E 019°19'611.6
2018-Feb-10 18:31N 60°04' E 019°12'611.6
2018-Feb-10 18:00N 60°08' E 019°04'510.7
2018-Feb-10 17:30N 60°13' E 018°60'611.3
2018-Feb-10 16:59N 60°19' E 019°00'511.1
2018-Feb-10 16:30N 60°24' E 018°59'  
2018-Feb-08 06:30N 55°54' E 016°18'611.7
2018-Feb-08 06:00N 55°51' E 016°09'1811.7
2018-Feb-08 04:30N 55°43' E 015°42'3511.7
2018-Feb-08 01:30N 55°26' E 014°47'611.7
2018-Feb-08 01:00N 55°23' E 014°39'611.7
2018-Feb-08 00:30N 55°18' E 014°32'611.7
2018-Feb-07 23:59N 55°14' E 014°25'611.7
2018-Feb-07 23:30N 55°09' E 014°19'611.7
2018-Feb-07 23:00N 55°05' E 014°13'611.4
2018-Feb-07 22:28N 55°00' E 014°05'  

Dump ship's entire track history